sensor_id;sensor_type;location;lat;lon;timestamp;pressure;altitude;pressure_sealevel;temperature;humidity
59315;BME280;46521;50.160;20.802;2023-05-01T00:10:10;100185.04;;;4.98;55.56
59315;BME280;46521;50.160;20.802;2023-05-01T00:20:11;100194.59;;;4.99;55.71
59315;BME280;46521;50.160;20.802;2023-05-01T00:30:14;100200.41;;;5.03;56.10
59315;BME280;46521;50.160;20.802;2023-05-01T00:40:15;100191.61;;;5.04;56.08
59315;BME280;46521;50.160;20.802;2023-05-01T00:50:17;100199.48;;;4.93;56.10
59315;BME280;46521;50.160;20.802;2023-05-01T01:00:18;100204.20;;;4.76;56.12
59315;BME280;46521;50.160;20.802;2023-05-01T01:20:59;100209.33;;;4.31;57.02
59315;BME280;46521;50.160;20.802;2023-05-01T01:31:17;100206.00;;;4.29;57.24
59315;BME280;46521;50.160;20.802;2023-05-01T01:41:30;100216.93;;;4.23;57.45
59315;BME280;46521;50.160;20.802;2023-05-01T01:51:34;100218.61;;;4.24;57.70
59315;BME280;46521;50.160;20.802;2023-05-01T02:01:39;100200.77;;;4.29;57.93
59315;BME280;46521;50.160;20.802;2023-05-01T02:11:42;100200.28;;;4.24;57.99
59315;BME280;46521;50.160;20.802;2023-05-01T02:21:45;100208.44;;;4.08;58.21
59315;BME280;46521;50.160;20.802;2023-05-01T02:31:47;100202.08;;;3.99;58.28
59315;BME280;46521;50.160;20.802;2023-05-01T02:41:48;100205.89;;;3.95;58.81
59315;BME280;46521;50.160;20.802;2023-05-01T02:51:51;100214.41;;;3.86;58.99
59315;BME280;46521;50.160;20.802;2023-05-01T03:01:53;100200.52;;;3.72;59.49
59315;BME280;46521;50.160;20.802;2023-05-01T03:11:56;100208.59;;;3.69;59.28
59315;BME280;46521;50.160;20.802;2023-05-01T03:21:58;100200.47;;;3.61;59.72
59315;BME280;46521;50.160;20.802;2023-05-01T03:32:00;100202.97;;;3.63;59.59
59315;BME280;46521;50.160;20.802;2023-05-01T03:42:02;100196.28;;;3.58;59.83
59315;BME280;46521;50.160;20.802;2023-05-01T03:52:03;100184.33;;;3.67;59.82
59315;BME280;46521;50.160;20.802;2023-05-01T04:02:05;100186.62;;;3.72;60.43
59315;BME280;46521;50.160;20.802;2023-05-01T04:12:06;100184.27;;;3.80;60.51
59315;BME280;46521;50.160;20.802;2023-05-01T04:22:08;100192.10;;;4.04;60.99
59315;BME280;46521;50.160;20.802;2023-05-01T04:32:09;100182.44;;;4.29;61.12
59315;BME280;46521;50.160;20.802;2023-05-01T04:42:11;100198.27;;;4.85;61.13
59315;BME280;46521;50.160;20.802;2023-05-01T04:52:12;100191.79;;;5.57;61.01
59315;BME280;46521;50.160;20.802;2023-05-01T05:02:14;100176.36;;;6.19;60.76
59315;BME280;46521;50.160;20.802;2023-05-01T05:12:16;100193.52;;;6.65;60.68
59315;BME280;46521;50.160;20.802;2023-05-01T05:22:17;100197.50;;;7.12;60.76
59315;BME280;46521;50.160;20.802;2023-05-01T05:32:19;100195.14;;;7.59;60.32
59315;BME280;46521;50.160;20.802;2023-05-01T05:42:20;100187.56;;;8.15;60.17
59315;BME280;46521;50.160;20.802;2023-05-01T05:52:22;100185.81;;;9.19;59.50
59315;BME280;46521;50.160;20.802;2023-05-01T06:02:23;100187.69;;;10.01;58.66
59315;BME280;46521;50.160;20.802;2023-05-01T06:12:26;100188.84;;;10.60;57.83
59315;BME280;46521;50.160;20.802;2023-05-01T06:22:29;100193.08;;;11.48;57.36
59315;BME280;46521;50.160;20.802;2023-05-01T06:32:31;100190.42;;;12.07;56.13
59315;BME280;46521;50.160;20.802;2023-05-01T06:42:32;100181.28;;;12.59;55.32
59315;BME280;46521;50.160;20.802;2023-05-01T06:52:34;100189.55;;;13.29;54.84
59315;BME280;46521;50.160;20.802;2023-05-01T07:02:35;100186.97;;;13.83;54.30
59315;BME280;46521;50.160;20.802;2023-05-01T07:12:38;100187.55;;;14.17;53.54
59315;BME280;46521;50.160;20.802;2023-05-01T07:22:39;100182.23;;;14.78;52.18
59315;BME280;46521;50.160;20.802;2023-05-01T07:32:41;100180.92;;;14.89;51.15
59315;BME280;46521;50.160;20.802;2023-05-01T07:42:42;100185.42;;;15.18;50.44
59315;BME280;46521;50.160;20.802;2023-05-01T07:52:44;100183.33;;;15.80;50.08
59315;BME280;46521;50.160;20.802;2023-05-01T08:02:46;100175.44;;;15.93;49.05
59315;BME280;46521;50.160;20.802;2023-05-01T08:12:48;100166.45;;;16.44;49.04
59315;BME280;46521;50.160;20.802;2023-05-01T08:22:49;100160.70;;;16.75;47.81
59315;BME280;46521;50.160;20.802;2023-05-01T08:32:51;100153.41;;;16.91;47.12
59315;BME280;46521;50.160;20.802;2023-05-01T08:42:53;100156.05;;;17.26;46.37
59315;BME280;46521;50.160;20.802;2023-05-01T08:52:56;100162.08;;;17.41;45.51
59315;BME280;46521;50.160;20.802;2023-05-01T09:03:00;100150.02;;;17.79;44.47
59315;BME280;46521;50.160;20.802;2023-05-01T09:13:03;100147.13;;;17.80;43.66
59315;BME280;46521;50.160;20.802;2023-05-01T09:23:08;100125.79;;;18.00;42.53
59315;BME280;46521;50.160;20.802;2023-05-01T09:33:12;100129.30;;;18.14;42.19
59315;BME280;46521;50.160;20.802;2023-05-01T09:43:22;100125.58;;;18.42;41.84
59315;BME280;46521;50.160;20.802;2023-05-01T09:53:39;100118.15;;;18.44;40.82
59315;BME280;46521;50.160;20.802;2023-05-01T10:03:43;100114.63;;;18.64;40.36
59315;BME280;46521;50.160;20.802;2023-05-01T10:13:45;100100.34;;;18.90;40.10
59315;BME280;46521;50.160;20.802;2023-05-01T10:23:46;100080.30;;;19.06;40.23
59315;BME280;46521;50.160;20.802;2023-05-01T10:33:48;100066.81;;;19.51;39.34
59315;BME280;46521;50.160;20.802;2023-05-01T10:44:19;100072.28;;;19.38;38.66
59315;BME280;46521;50.160;20.802;2023-05-01T10:54:31;100053.19;;;19.53;38.36
59315;BME280;46521;50.160;20.802;2023-05-01T11:04:48;100045.33;;;19.58;37.80
59315;BME280;46521;50.160;20.802;2023-05-01T11:25:21;100023.80;;;19.65;37.30
59315;BME280;46521;50.160;20.802;2023-05-01T11:35:25;100029.67;;;19.55;36.51
59315;BME280;46521;50.160;20.802;2023-05-01T11:45:28;99997.26;;;19.56;36.00
59315;BME280;46521;50.160;20.802;2023-05-01T11:55:32;99988.55;;;19.61;35.57
59315;BME280;46521;50.160;20.802;2023-05-01T12:05:35;99970.68;;;19.48;35.69
59315;BME280;46521;50.160;20.802;2023-05-01T12:15:40;99961.88;;;19.41;35.39
59315;BME280;46521;50.160;20.802;2023-05-01T12:25:43;99951.88;;;19.30;34.92
59315;BME280;46521;50.160;20.802;2023-05-01T12:35:47;99938.99;;;19.38;34.88
59315;BME280;46521;50.160;20.802;2023-05-01T12:45:51;99933.31;;;19.28;34.46
59315;BME280;46521;50.160;20.802;2023-05-01T12:55:57;99915.20;;;19.23;34.35
59315;BME280;46521;50.160;20.802;2023-05-01T13:06:02;99900.64;;;19.38;34.27
59315;BME280;46521;50.160;20.802;2023-05-01T13:16:05;99897.46;;;19.22;34.01
59315;BME280;46521;50.160;20.802;2023-05-01T13:26:08;99886.14;;;19.20;33.66
59315;BME280;46521;50.160;20.802;2023-05-01T13:36:30;99880.59;;;19.15;33.49
59315;BME280;46521;50.160;20.802;2023-05-01T13:46:33;99869.56;;;19.05;33.14
59315;BME280;46521;50.160;20.802;2023-05-01T13:56:37;99859.55;;;18.94;32.61
59315;BME280;46521;50.160;20.802;2023-05-01T14:06:43;99849.48;;;18.89;32.88
59315;BME280;46521;50.160;20.802;2023-05-01T14:16:47;99842.34;;;18.76;32.27
59315;BME280;46521;50.160;20.802;2023-05-01T14:26:49;99830.19;;;18.73;32.37
59315;BME280;46521;50.160;20.802;2023-05-01T14:36:53;99816.41;;;18.70;32.16
59315;BME280;46521;50.160;20.802;2023-05-01T14:46:55;99804.70;;;18.64;32.19
59315;BME280;46521;50.160;20.802;2023-05-01T14:56:58;99791.58;;;18.56;32.48
59315;BME280;46521;50.160;20.802;2023-05-01T15:07:03;99773.13;;;18.41;32.53
59315;BME280;46521;50.160;20.802;2023-05-01T15:17:05;99772.81;;;18.24;33.16
59315;BME280;46521;50.160;20.802;2023-05-01T15:27:07;99765.43;;;18.19;33.32
59315;BME280;46521;50.160;20.802;2023-05-01T15:37:09;99760.60;;;18.03;33.35
59315;BME280;46521;50.160;20.802;2023-05-01T15:47:10;99754.89;;;17.86;34.03
59315;BME280;46521;50.160;20.802;2023-05-01T15:57:12;99742.23;;;17.68;33.93
59315;BME280;46521;50.160;20.802;2023-05-01T16:07:14;99732.41;;;17.48;33.96
59315;BME280;46521;50.160;20.802;2023-05-01T16:17:17;99739.45;;;17.36;34.45
59315;BME280;46521;50.160;20.802;2023-05-01T16:27:19;99726.16;;;17.09;34.54
59315;BME280;46521;50.160;20.802;2023-05-01T16:37:22;99720.62;;;16.84;35.30
59315;BME280;46521;50.160;20.802;2023-05-01T16:47:26;99717.97;;;16.71;35.16
59315;BME280;46521;50.160;20.802;2023-05-01T16:57:28;99718.78;;;16.51;35.61
59315;BME280;46521;50.160;20.802;2023-05-01T17:07:29;99715.89;;;16.26;35.66
59315;BME280;46521;50.160;20.802;2023-05-01T17:17:31;99711.97;;;16.02;36.29
59315;BME280;46521;50.160;20.802;2023-05-01T17:27:33;99703.23;;;15.73;36.34
59315;BME280;46521;50.160;20.802;2023-05-01T17:37:34;99703.55;;;15.50;36.89
59315;BME280;46521;50.160;20.802;2023-05-01T17:47:41;99714.73;;;15.25;37.22
59315;BME280;46521;50.160;20.802;2023-05-01T17:57:45;99712.34;;;15.02;37.88
59315;BME280;46521;50.160;20.802;2023-05-01T18:07:47;99710.97;;;14.78;38.18
59315;BME280;46521;50.160;20.802;2023-05-01T18:17:49;99707.66;;;14.54;38.50
59315;BME280;46521;50.160;20.802;2023-05-01T18:27:50;99705.24;;;14.31;38.97
59315;BME280;46521;50.160;20.802;2023-05-01T18:37:52;99710.99;;;14.13;39.39
59315;BME280;46521;50.160;20.802;2023-05-01T18:47:53;99705.28;;;13.95;39.68
59315;BME280;46521;50.160;20.802;2023-05-01T18:57:55;99713.13;;;13.81;40.19
59315;BME280;46521;50.160;20.802;2023-05-01T19:07:57;99704.73;;;13.63;40.42
59315;BME280;46521;50.160;20.802;2023-05-01T19:18:01;99709.91;;;13.49;41.09
59315;BME280;46521;50.160;20.802;2023-05-01T19:28:03;99703.46;;;13.29;41.08
59315;BME280;46521;50.160;20.802;2023-05-01T19:38:05;99692.68;;;13.15;42.11
59315;BME280;46521;50.160;20.802;2023-05-01T19:48:06;99692.66;;;13.01;41.82
59315;BME280;46521;50.160;20.802;2023-05-01T19:58:08;99696.05;;;12.79;42.33
59315;BME280;46521;50.160;20.802;2023-05-01T20:08:10;99693.84;;;12.68;42.49
59315;BME280;46521;50.160;20.802;2023-05-01T20:18:12;99680.00;;;12.58;43.47
59315;BME280;46521;50.160;20.802;2023-05-01T20:28:14;99676.80;;;12.48;43.03
59315;BME280;46521;50.160;20.802;2023-05-01T20:38:16;99673.92;;;12.34;43.46
59315;BME280;46521;50.160;20.802;2023-05-01T20:48:18;99670.11;;;12.14;43.89
59315;BME280;46521;50.160;20.802;2023-05-01T20:58:19;99666.22;;;12.01;43.61
59315;BME280;46521;50.160;20.802;2023-05-01T21:08:21;99672.23;;;11.95;44.54
59315;BME280;46521;50.160;20.802;2023-05-01T21:18:22;99668.13;;;11.84;44.24
59315;BME280;46521;50.160;20.802;2023-05-01T21:28:24;99667.38;;;11.76;44.71
59315;BME280;46521;50.160;20.802;2023-05-01T21:38:25;99672.06;;;11.65;44.75
59315;BME280;46521;50.160;20.802;2023-05-01T21:48:31;99658.02;;;11.57;45.62
59315;BME280;46521;50.160;20.802;2023-05-01T21:58:34;99658.42;;;11.45;45.41
59315;BME280;46521;50.160;20.802;2023-05-01T22:08:36;99659.33;;;11.29;46.55
59315;BME280;46521;50.160;20.802;2023-05-01T22:18:37;99684.05;;;11.13;45.82
59315;BME280;46521;50.160;20.802;2023-05-01T22:28:39;99681.27;;;10.98;46.34
59315;BME280;46521;50.160;20.802;2023-05-01T22:38:41;99692.88;;;10.89;46.95
59315;BME280;46521;50.160;20.802;2023-05-01T22:48:42;99691.58;;;10.85;47.00
59315;BME280;46521;50.160;20.802;2023-05-01T22:58:44;99688.30;;;10.67;47.00
59315;BME280;46521;50.160;20.802;2023-05-01T23:08:45;99684.33;;;10.62;47.27
59315;BME280;46521;50.160;20.802;2023-05-01T23:18:47;99685.36;;;10.53;47.74
59315;BME280;46521;50.160;20.802;2023-05-01T23:28:48;99683.03;;;10.42;47.44
59315;BME280;46521;50.160;20.802;2023-05-01T23:38:50;99683.67;;;10.27;47.95
59315;BME280;46521;50.160;20.802;2023-05-01T23:48:51;99683.02;;;10.17;48.21
